createdAt,value
2022-08-17T00:02:06.570Z,101434.25
2022-08-17T00:04:51.414Z,101435.38
2022-08-17T00:07:17.848Z,101446.22
2022-08-17T00:09:44.295Z,101468.31
2022-08-17T00:12:43.155Z,101471.16
2022-08-17T00:14:59.751Z,101481.25
2022-08-17T00:17:26.276Z,101494.69
2022-08-17T00:19:52.733Z,101507.13
2022-08-17T00:22:32.623Z,101529.19
2022-08-17T00:25:08.000Z,101538.31
2022-08-17T00:27:35.365Z,101550.38
2022-08-17T00:30:01.920Z,101590.03
2022-08-17T00:33:13.959Z,101604.50
2022-08-17T00:35:17.677Z,101698.53
2022-08-17T00:37:44.441Z,101879.22
2022-08-17T00:40:13.743Z,101878.88
2022-08-17T00:42:40.965Z,101885.56
2022-08-17T00:45:10.476Z,101896.28
2022-08-17T00:47:36.999Z,101919.66
2022-08-17T00:50:08.348Z,101929.22
2022-08-17T00:52:41.345Z,101934.16
2022-08-17T00:55:09.366Z,101945.94
2022-08-17T00:57:41.839Z,101930.09
2022-08-17T01:00:21.366Z,101937.41
2022-08-17T01:02:48.881Z,101944.25
2022-08-17T01:05:21.355Z,101947.69
2022-08-17T01:07:50.654Z,101957.66
2022-08-17T01:10:57.203Z,101964.53
2022-08-17T01:13:11.102Z,101980.81
2022-08-17T01:15:46.136Z,101981.78
2022-08-17T01:18:14.371Z,101990.59
2022-08-17T01:20:48.635Z,102005.84
2022-08-17T01:23:20.534Z,102007.13
2022-08-17T01:25:56.741Z,102012.69
2022-08-17T01:28:33.643Z,102026.66
2022-08-17T01:31:13.404Z,102030.50
2022-08-17T01:33:40.109Z,102069.97
2022-08-17T01:36:07.629Z,102098.47
2022-08-17T01:38:38.795Z,102099.94
2022-08-17T01:41:12.335Z,102104.09
2022-08-17T01:43:49.460Z,102107.41
2022-08-17T01:46:22.429Z,102124.34
2022-08-17T01:48:51.087Z,102140.16
2022-08-17T01:51:18.159Z,102155.06
2022-08-17T01:53:49.838Z,102151.72
2022-08-17T01:56:20.327Z,102161.47
2022-08-17T01:58:47.103Z,102169.34
2022-08-17T02:01:14.756Z,102173.84
2022-08-17T02:03:42.448Z,102179.09
2022-08-17T02:06:27.714Z,102184.28
2022-08-17T02:09:03.245Z,102196.91
2022-08-17T02:11:33.925Z,102200.25
2022-08-17T02:14:02.960Z,102201.66
2022-08-17T02:16:37.592Z,102211.00
2022-08-17T02:19:10.324Z,102218.78
2022-08-17T02:21:38.043Z,102228.09
2022-08-17T02:24:08.364Z,102238.53
2022-08-17T02:26:35.093Z,102236.13
2022-08-17T02:29:01.944Z,102249.84
2022-08-17T02:31:28.435Z,102257.97
2022-08-17T02:34:00.403Z,102265.47
2022-08-17T02:36:32.432Z,102279.47
2022-08-17T02:39:00.695Z,102286.00
2022-08-17T02:41:27.707Z,102285.44
2022-08-17T02:43:54.160Z,102297.84
2022-08-17T02:46:20.670Z,102305.19
2022-08-17T02:48:47.369Z,102300.22
2022-08-17T02:51:14.326Z,102312.31
2022-08-17T02:53:40.933Z,102304.66
2022-08-17T02:56:07.484Z,102300.56
2022-08-17T02:58:35.233Z,102312.94
2022-08-17T03:01:03.904Z,102329.34
2022-08-17T03:03:30.378Z,102322.09
2022-08-17T03:05:56.868Z,102316.56
2022-08-17T03:08:23.523Z,102324.84
2022-08-17T03:10:50.487Z,102313.94
2022-08-17T03:13:17.667Z,102269.81
2022-08-17T03:15:46.305Z,102256.63
2022-08-17T03:18:24.363Z,102236.31
2022-08-17T03:20:54.662Z,102223.66
2022-08-17T03:23:24.239Z,102194.00
2022-08-17T03:25:53.627Z,102185.69
2022-08-17T03:28:21.054Z,102168.97
2022-08-17T03:30:47.620Z,102154.47
2022-08-17T03:33:14.597Z,102152.34
2022-08-17T03:35:41.725Z,102140.81
2022-08-17T03:38:10.257Z,102132.25
2022-08-17T03:40:58.481Z,102147.28
2022-08-17T03:43:24.518Z,102147.06
2022-08-17T03:46:29.040Z,102137.44
2022-08-17T03:49:15.151Z,102129.69
2022-08-17T03:52:00.303Z,102128.94
2022-08-17T03:54:45.156Z,102125.78
2022-08-17T03:57:12.410Z,102142.06
2022-08-17T03:59:39.567Z,102152.38
2022-08-17T04:02:11.513Z,102150.16
2022-08-17T04:04:39.006Z,102163.22
2022-08-17T04:07:06.147Z,102170.47
2022-08-17T04:09:32.764Z,102161.50
2022-08-17T04:12:01.209Z,102154.63
2022-08-17T04:14:36.051Z,102157.28
2022-08-17T04:17:05.868Z,102167.41
2022-08-17T04:19:32.507Z,102170.28
2022-08-17T04:21:59.013Z,102173.09
2022-08-17T04:24:27.159Z,102177.59
2022-08-17T04:26:54.708Z,102176.44
2022-08-17T04:29:21.602Z,102179.13
2022-08-17T04:31:48.181Z,102174.56
2022-08-17T04:34:14.760Z,102171.88
2022-08-17T04:36:50.169Z,102172.88
2022-08-17T04:39:16.989Z,102169.34
2022-08-17T04:42:09.671Z,102185.31
2022-08-17T04:44:37.771Z,102179.63
2022-08-17T04:47:05.059Z,102184.72
2022-08-17T04:49:32.623Z,102196.63
2022-08-17T04:52:04.336Z,102196.09
2022-08-17T04:54:31.169Z,102187.50
2022-08-17T04:56:57.692Z,102201.41
2022-08-17T04:59:24.436Z,102196.88
2022-08-17T05:01:51.953Z,102208.06
2022-08-17T05:04:34.061Z,102225.41
2022-08-17T05:07:02.327Z,102234.53
2022-08-17T05:09:29.131Z,102241.50
2022-08-17T05:11:56.306Z,102249.47
2022-08-17T05:14:32.847Z,102253.47
2022-08-17T05:17:01.086Z,102268.94
2022-08-17T05:19:28.579Z,102281.31
2022-08-17T05:21:55.124Z,102298.59
2022-08-17T05:24:42.518Z,102303.34
2022-08-17T05:27:08.057Z,102316.06
2022-08-17T05:29:35.543Z,102326.81
2022-08-17T05:32:37.452Z,102349.44
2022-08-17T05:34:59.990Z,102378.47
2022-08-17T05:37:26.485Z,102379.13
2022-08-17T05:39:54.240Z,102384.88
2022-08-17T05:42:21.231Z,102377.91
2022-08-17T05:44:47.821Z,102391.91
2022-08-17T05:47:14.390Z,102381.13
2022-08-17T05:49:40.963Z,102377.25
2022-08-17T05:52:23.717Z,102370.81
2022-08-17T05:55:12.838Z,102364.47
2022-08-17T05:58:09.020Z,102360.72
2022-08-17T06:00:55.954Z,102356.63
2022-08-17T06:03:33.991Z,102366.06
2022-08-17T06:06:17.187Z,102366.84
2022-08-17T06:09:24.896Z,102358.34
2022-08-17T06:12:14.446Z,102347.28
2022-08-17T06:15:01.374Z,102344.81
2022-08-17T06:17:29.556Z,102331.78
2022-08-17T06:19:59.717Z,102327.44
2022-08-17T06:22:33.548Z,102309.59
2022-08-17T06:25:14.168Z,102306.72
2022-08-17T06:27:46.353Z,102304.06
2022-08-17T06:30:17.774Z,102294.19
2022-08-17T06:32:47.462Z,102270.81
2022-08-17T06:35:18.355Z,102259.91
2022-08-17T06:38:36.872Z,102240.66
2022-08-17T06:41:16.315Z,102218.56
2022-08-17T06:44:09.945Z,102198.69
2022-08-17T06:46:38.082Z,102180.81
2022-08-17T06:49:21.826Z,102165.00
2022-08-17T06:52:06.803Z,102156.91
2022-08-17T06:54:38.196Z,102149.81
2022-08-17T06:57:10.863Z,102143.56
2022-08-17T06:59:55.903Z,102138.53
2022-08-17T07:02:52.843Z,102140.31
2022-08-17T07:05:45.428Z,102133.31
2022-08-17T07:08:19.199Z,102119.22
2022-08-17T07:10:53.763Z,102110.78
2022-08-17T07:13:31.131Z,102107.22
2022-08-17T07:16:07.332Z,102096.03
2022-08-17T07:18:34.206Z,102074.84
2022-08-17T07:21:17.537Z,102070.53
2022-08-17T07:24:09.707Z,102068.03
2022-08-17T07:27:10.747Z,102052.56
2022-08-17T07:29:53.662Z,102033.00
2022-08-17T07:32:28.331Z,102011.13
2022-08-17T07:35:15.673Z,101980.25
2022-08-17T07:37:53.049Z,101952.78
2022-08-17T07:40:35.953Z,101935.53
2022-08-17T07:43:11.542Z,101912.81
2022-08-17T07:46:17.324Z,101914.41
2022-08-17T07:48:49.622Z,101903.41
2022-08-17T07:51:36.510Z,101899.41
2022-08-17T07:54:24.701Z,101877.50
2022-08-17T07:57:13.038Z,101854.63
2022-08-17T08:00:03.418Z,101846.53
2022-08-17T08:05:49.290Z,101806.94
2022-08-17T08:08:42.155Z,101797.72
2022-08-17T08:11:15.472Z,101776.78
2022-08-17T08:13:45.530Z,101765.50
2022-08-17T08:16:31.523Z,101744.78
2022-08-17T08:19:01.100Z,101717.09
2022-08-17T08:21:42.592Z,101702.63
2022-08-17T08:24:35.476Z,101685.53
2022-08-17T08:27:17.273Z,101642.91
2022-08-17T08:30:00.093Z,101599.81
2022-08-17T08:32:39.557Z,101497.47
2022-08-17T08:35:19.004Z,101491.25
2022-08-17T08:37:51.237Z,101481.50
2022-08-17T08:40:51.789Z,101478.19
2022-08-17T08:43:52.783Z,101446.03
2022-08-17T08:46:50.872Z,101432.38
2022-08-17T08:50:02.800Z,101383.06
2022-08-17T08:52:41.651Z,101362.72
2022-08-17T08:55:42.457Z,101370.81
2022-08-17T08:58:31.774Z,101344.19
2022-08-17T09:01:16.714Z,101343.69
2022-08-17T09:04:17.888Z,101332.72
2022-08-17T09:06:50.591Z,101347.31
2022-08-17T09:09:38.887Z,101339.94
2022-08-17T09:12:09.498Z,101328.59
2022-08-17T09:15:02.869Z,101320.88
2022-08-17T09:17:45.532Z,101309.84
2022-08-17T09:20:29.824Z,101316.16
2022-08-17T09:23:07.908Z,101316.78
2022-08-17T09:25:45.763Z,101318.84
2022-08-17T09:28:31.163Z,101323.06
2022-08-17T09:31:03.275Z,101311.47
2022-08-17T09:33:33.676Z,101311.69
2022-08-17T09:36:05.225Z,101300.66
2022-08-17T09:38:43.507Z,101282.75
2022-08-17T09:41:26.651Z,101259.34
2022-08-17T09:44:22.818Z,101255.28
2022-08-17T09:47:00.772Z,101238.25
2022-08-17T09:49:31.985Z,101239.72
2022-08-17T09:52:10.137Z,101240.75
2022-08-17T09:54:40.640Z,101235.97
2022-08-17T09:57:31.712Z,101230.69
2022-08-17T10:00:30.018Z,101232.75
2022-08-17T10:03:20.962Z,101244.44
2022-08-17T10:06:02.683Z,101236.81
2022-08-17T10:08:45.896Z,101214.56
2022-08-17T10:11:45.856Z,101200.47
2022-08-17T10:14:44.458Z,101205.47
2022-08-17T10:17:39.177Z,101211.47
2022-08-17T10:20:28.176Z,101224.13
2022-08-17T10:23:21.348Z,101227.72
2022-08-17T10:26:12.860Z,101234.81
2022-08-17T10:28:52.636Z,101228.66
2022-08-17T10:31:35.530Z,101216.63
2022-08-17T10:34:25.239Z,101202.97
2022-08-17T10:37:14.917Z,101185.03
2022-08-17T10:39:57.328Z,101187.44
2022-08-17T10:42:48.870Z,101190.66
2022-08-17T10:45:26.229Z,101356.75
2022-08-17T10:48:04.699Z,101315.50
2022-08-17T10:51:00.091Z,101303.94
2022-08-17T10:53:32.609Z,101375.56
2022-08-17T10:56:14.508Z,101446.97
2022-08-17T10:58:57.441Z,101416.78
2022-08-17T11:01:33.097Z,101415.34
2022-08-17T11:04:46.226Z,101376.22
2022-08-17T11:07:26.015Z,101343.16
2022-08-17T11:10:16.209Z,101298.56
2022-08-17T11:13:10.912Z,101325.03
2022-08-17T11:15:37.308Z,101311.00
2022-08-17T11:18:03.761Z,101271.59
2022-08-17T11:20:48.501Z,101272.84
2022-08-17T11:23:31.479Z,101209.78
2022-08-17T11:26:08.558Z,101214.56
2022-08-17T11:28:48.739Z,101328.16
2022-08-17T11:31:38.747Z,101348.78
2022-08-17T11:34:13.266Z,101410.19
2022-08-17T11:37:04.789Z,101408.38
2022-08-17T11:40:06.621Z,101393.44
2022-08-17T11:42:51.696Z,101335.53
2022-08-17T11:45:55.773Z,101320.19
2022-08-17T11:49:03.572Z,101352.84
2022-08-17T11:51:54.637Z,101405.44
2022-08-17T11:54:33.254Z,101422.53
2022-08-17T11:57:47.096Z,101439.19
2022-08-17T12:00:41.497Z,101435.78
2022-08-17T12:03:43.152Z,101386.88
2022-08-17T12:06:30.258Z,101420.81
2022-08-17T12:09:21.791Z,101392.59
2022-08-17T12:12:13.287Z,101434.41
2022-08-17T12:17:39.421Z,101444.47
2022-08-17T12:20:18.211Z,101418.13
2022-08-17T12:23:09.558Z,101409.06
2022-08-17T12:25:43.351Z,101405.91
2022-08-17T12:28:31.864Z,101380.22
2022-08-17T12:31:07.740Z,101390.88
2022-08-17T12:33:37.022Z,101382.63
2022-08-17T12:36:07.400Z,101387.94
2022-08-17T12:38:36.726Z,101387.53
2022-08-17T12:41:24.896Z,101372.53
2022-08-17T12:44:03.368Z,101372.22
2022-08-17T12:46:44.921Z,101417.47
2022-08-17T12:49:15.234Z,101396.84
2022-08-17T12:51:46.873Z,101384.81
2022-08-17T12:54:26.234Z,101423.94
2022-08-17T12:56:53.415Z,101401.88
2022-08-17T12:59:30.175Z,101384.56
2022-08-17T13:01:57.476Z,101369.75
2022-08-17T13:04:29.829Z,101373.91
2022-08-17T13:07:00.170Z,101389.84
2022-08-17T13:09:35.548Z,101396.38
2022-08-17T13:12:06.961Z,101392.66
2022-08-17T13:14:35.083Z,101402.16
2022-08-17T13:17:06.281Z,101388.63
2022-08-17T13:19:40.674Z,101383.72
2022-08-17T13:22:12.623Z,101400.69
2022-08-17T13:24:52.922Z,101411.97
2022-08-17T13:27:21.595Z,101417.03
2022-08-17T13:29:56.344Z,101422.19
2022-08-17T13:32:43.979Z,101429.91
2022-08-17T13:35:32.278Z,101426.16
2022-08-17T13:38:15.772Z,101429.63
2022-08-17T13:40:49.991Z,101428.94
2022-08-17T13:43:45.794Z,101428.47
2022-08-17T13:46:27.574Z,101413.84
2022-08-17T13:49:00.518Z,101404.91
2022-08-17T13:51:30.707Z,101416.56
2022-08-17T13:54:00.547Z,101421.44
2022-08-17T13:56:54.653Z,101406.16
2022-08-17T13:59:36.102Z,101391.66
2022-08-17T14:02:14.283Z,101409.72
2022-08-17T14:04:42.884Z,101405.75
2022-08-17T14:07:10.432Z,101401.88
2022-08-17T14:09:58.166Z,101407.56
2022-08-17T14:12:26.161Z,101402.94
2022-08-17T14:14:55.026Z,101396.94
2022-08-17T14:17:22.958Z,101393.56
2022-08-17T14:19:50.769Z,101370.59
2022-08-17T14:22:25.652Z,101356.25
2022-08-17T14:24:52.561Z,101363.09
2022-08-17T14:27:20.372Z,101341.00
2022-08-17T14:29:47.100Z,101308.50
2022-08-17T14:32:20.328Z,101276.75
2022-08-17T14:34:47.482Z,101246.16
2022-08-17T14:37:13.980Z,101209.75
2022-08-17T14:39:40.542Z,101180.53
2022-08-17T14:42:07.309Z,101172.56
2022-08-17T14:44:34.527Z,101205.28
2022-08-17T14:47:01.081Z,101247.03
2022-08-17T14:49:28.054Z,101295.00
2022-08-17T14:51:54.545Z,101306.09
2022-08-17T14:54:33.168Z,101330.84
2022-08-17T14:57:22.709Z,101347.56
2022-08-17T14:59:54.445Z,101360.84
2022-08-17T15:02:30.215Z,101358.69
2022-08-17T15:05:02.434Z,101380.63
2022-08-17T15:07:30.867Z,101371.81
2022-08-17T15:09:58.673Z,101368.75
2022-08-17T15:12:32.035Z,101371.84
2022-08-17T15:15:00.700Z,101375.41
2022-08-17T15:17:27.319Z,101364.41
2022-08-17T15:20:19.681Z,101365.28
2022-08-17T15:22:49.685Z,101362.16
2022-08-17T15:25:18.634Z,101361.44
2022-08-17T15:27:45.191Z,101359.94
2022-08-17T15:30:12.651Z,101360.41
2022-08-17T15:32:41.198Z,101341.50
2022-08-17T15:35:18.458Z,101346.91
2022-08-17T15:37:45.202Z,101339.16
2022-08-17T15:40:13.061Z,101339.19
2022-08-17T15:42:41.091Z,101340.56
2022-08-17T15:45:11.644Z,101329.47
2022-08-17T15:47:38.896Z,101331.22
2022-08-17T15:50:07.692Z,101321.81
2022-08-17T15:52:40.016Z,101315.78
2022-08-17T15:55:10.407Z,101310.13
2022-08-17T15:57:37.122Z,101287.03
2022-08-17T16:00:06.087Z,101250.03
2022-08-17T16:03:46.742Z,101220.56
2022-08-17T16:05:24.826Z,101205.19
2022-08-17T16:07:52.279Z,101233.50
2022-08-17T16:10:19.680Z,101242.69
2022-08-17T16:12:48.470Z,101269.47
2022-08-17T16:15:16.226Z,101271.25
2022-08-17T16:17:42.777Z,101285.69
2022-08-17T16:20:20.333Z,101301.91
2022-08-17T16:22:49.512Z,101308.31
2022-08-17T16:25:20.396Z,101304.44
2022-08-17T16:27:50.444Z,101296.22
2022-08-17T16:30:17.885Z,101304.75
2022-08-17T16:32:46.334Z,101304.53
2022-08-17T16:35:17.368Z,101293.50
2022-08-17T16:37:45.598Z,101286.66
2022-08-17T16:40:14.287Z,101300.16
2022-08-17T16:42:41.557Z,101297.03
2022-08-17T16:45:10.087Z,101303.81
2022-08-17T16:47:36.948Z,101317.16
2022-08-17T16:50:08.517Z,101307.72
2022-08-17T16:52:36.919Z,101310.38
2022-08-17T16:55:05.320Z,101311.16
2022-08-17T16:57:32.092Z,101304.56
2022-08-17T16:59:58.589Z,101286.28
2022-08-17T17:02:31.237Z,101284.66
2022-08-17T17:05:02.930Z,101282.84
2022-08-17T17:07:33.827Z,101284.03
2022-08-17T17:10:15.320Z,101270.94
2022-08-17T17:13:03.236Z,101255.19
2022-08-17T17:15:47.205Z,101225.56
2022-08-17T17:18:15.743Z,101229.66
2022-08-17T17:20:56.392Z,101228.13
2022-08-17T17:23:42.866Z,101225.59
2022-08-17T17:26:28.335Z,101236.56
2022-08-17T17:29:12.615Z,101256.06
2022-08-17T17:32:20.721Z,101267.31
2022-08-17T17:35:04.609Z,101279.63
2022-08-17T17:37:34.693Z,101293.94
2022-08-17T17:40:12.570Z,101246.84
2022-08-17T17:42:40.488Z,101201.19
2022-08-17T17:45:10.722Z,101121.16
2022-08-17T17:47:37.991Z,101056.63
2022-08-17T17:50:06.925Z,101043.34
2022-08-17T17:52:38.142Z,101046.41
2022-08-17T17:55:28.217Z,101035.66
2022-08-17T17:58:02.899Z,101024.38
2022-08-17T18:00:39.931Z,101004.22
2022-08-17T18:03:14.035Z,100999.16
2022-08-17T18:05:48.830Z,100999.31
2022-08-17T18:08:34.682Z,100998.97
2022-08-17T18:11:14.115Z,100996.63
2022-08-17T18:14:14.338Z,100994.25
2022-08-17T18:16:42.874Z,100998.69
2022-08-17T18:19:14.531Z,100992.25
2022-08-17T18:21:46.914Z,101006.13
2022-08-17T18:24:14.162Z,101013.53
2022-08-17T18:26:55.705Z,101026.38
2022-08-17T18:29:35.755Z,101024.47
2022-08-17T18:32:24.945Z,101030.25
2022-08-17T18:35:27.564Z,101047.25
2022-08-17T18:38:20.357Z,101059.44
2022-08-17T18:40:58.571Z,101071.00
2022-08-17T18:43:26.360Z,101093.50
2022-08-17T18:45:55.815Z,101119.81
2022-08-17T18:48:58.868Z,101140.75
2022-08-17T18:51:42.676Z,101198.78
2022-08-17T18:54:24.300Z,101226.97
2022-08-17T18:56:59.100Z,101250.50
2022-08-17T18:59:40.083Z,101245.63
2022-08-17T19:05:14.625Z,101253.25
2022-08-17T19:07:44.256Z,101256.22
2022-08-17T19:10:19.534Z,101251.53
2022-08-17T19:13:00.885Z,101248.63
2022-08-17T19:15:35.455Z,101241.91
2022-08-17T19:18:31.623Z,101228.44
2022-08-17T19:21:05.492Z,101214.38
2022-08-17T19:23:54.124Z,101183.75
2022-08-17T19:26:50.625Z,101154.50
2022-08-17T19:29:36.752Z,101126.41
2022-08-17T19:32:06.409Z,101114.19
2022-08-17T19:34:35.793Z,101098.06
2022-08-17T19:37:11.296Z,101067.13
2022-08-17T19:39:40.806Z,101063.06
2022-08-17T19:42:54.990Z,101041.69
2022-08-17T19:45:45.483Z,101021.72
2022-08-17T19:48:25.937Z,101012.47
2022-08-17T19:51:01.434Z,100997.31
2022-08-17T19:54:04.318Z,100993.88
2022-08-17T19:56:47.572Z,100982.38
2022-08-17T19:59:35.941Z,100980.69
2022-08-17T20:02:38.521Z,100974.28
2022-08-17T20:05:30.679Z,100983.06
2022-08-17T20:08:08.600Z,100976.34
2022-08-17T20:10:48.015Z,100984.31
2022-08-17T20:13:33.505Z,100985.31
2022-08-17T20:16:01.339Z,100994.63
2022-08-17T20:18:37.655Z,101006.78
2022-08-17T20:21:20.575Z,101020.63
2022-08-17T20:24:06.396Z,101047.00
2022-08-17T20:26:58.484Z,101082.53
2022-08-17T20:29:31.953Z,101132.53
2022-08-17T20:32:07.392Z,101157.97
2022-08-17T20:34:38.106Z,101171.22
2022-08-17T20:37:26.238Z,101187.53
2022-08-17T20:39:52.753Z,101191.25
2022-08-17T20:42:22.311Z,101260.41
2022-08-17T20:44:52.408Z,101367.81
2022-08-17T20:47:27.382Z,101433.94
2022-08-17T20:50:08.034Z,101531.44
2022-08-17T20:52:58.909Z,101630.81
2022-08-17T20:55:35.332Z,101668.34
2022-08-17T20:58:24.352Z,101711.47
2022-08-17T21:00:57.154Z,101768.84
2022-08-17T21:03:23.810Z,101796.16
2022-08-17T21:06:00.785Z,101822.56
2022-08-17T21:08:42.477Z,101839.69
2022-08-17T21:12:00.042Z,101832.38
2022-08-17T21:14:54.152Z,101852.19
2022-08-17T21:17:29.659Z,101860.00
2022-08-17T21:20:32.488Z,101876.25
2022-08-17T21:23:08.487Z,101888.81
2022-08-17T21:25:56.191Z,101901.75
2022-08-17T21:29:30.831Z,101935.13
2022-08-17T21:31:59.418Z,101972.47
2022-08-17T21:34:39.763Z,101988.97
2022-08-17T21:37:29.357Z,102013.44
2022-08-17T21:40:18.855Z,102020.31
2022-08-17T21:42:51.171Z,102025.28
2022-08-17T21:45:35.471Z,102037.69
2022-08-17T21:48:17.647Z,102035.97
2022-08-17T21:50:55.703Z,102058.50
2022-08-17T21:53:33.198Z,102051.97
2022-08-17T21:56:00.515Z,102067.13
2022-08-17T21:58:40.151Z,102083.75
2022-08-17T22:01:12.064Z,102088.00
2022-08-17T22:03:38.880Z,102104.06
2022-08-17T22:06:43.112Z,102106.22
2022-08-17T22:09:22.773Z,102102.16
2022-08-17T22:11:52.583Z,102106.41
2022-08-17T22:14:27.533Z,102116.84
2022-08-17T22:17:25.126Z,102124.06
2022-08-17T22:19:54.877Z,102127.00
2022-08-17T22:23:16.584Z,102126.63
2022-08-17T22:26:01.815Z,102112.38
2022-08-17T22:28:45.884Z,102116.63
2022-08-17T22:31:24.528Z,102116.72
2022-08-17T22:34:14.445Z,102106.09
2022-08-17T22:36:42.336Z,102101.97
2022-08-17T22:39:08.725Z,102092.97
2022-08-17T22:41:51.817Z,102088.19
2022-08-17T22:44:32.291Z,102080.22
2022-08-17T22:47:11.443Z,102082.81
2022-08-17T22:49:54.117Z,102087.09
2022-08-17T22:53:00.662Z,102102.22
2022-08-17T22:55:51.738Z,102107.28
2022-08-17T22:58:42.377Z,102118.22
2022-08-17T23:01:35.514Z,102124.78
2022-08-17T23:04:10.303Z,102134.50
2022-08-17T23:06:40.055Z,102138.75
2022-08-17T23:09:07.417Z,102138.75
2022-08-17T23:11:36.608Z,102121.50
2022-08-17T23:14:15.558Z,102122.00
2022-08-17T23:16:42.735Z,102126.94
2022-08-17T23:19:15.257Z,102118.66
2022-08-17T23:21:44.809Z,102112.25
2022-08-17T23:24:21.213Z,102114.66
2022-08-17T23:26:47.792Z,102115.75
2022-08-17T23:29:14.445Z,102120.22
2022-08-17T23:31:41.204Z,102115.88
2022-08-17T23:34:13.088Z,102105.66
2022-08-17T23:36:39.652Z,102105.41
2022-08-17T23:39:07.087Z,102108.09
2022-08-17T23:41:40.008Z,102109.84
2022-08-17T23:44:07.135Z,102108.84
2022-08-17T23:46:34.515Z,102109.06
2022-08-17T23:49:01.281Z,102120.72
2022-08-17T23:51:31.506Z,102125.75
2022-08-17T23:54:07.674Z,102111.06
2022-08-17T23:56:38.316Z,102113.78
2022-08-17T23:59:05.007Z,102112.81
